Terminal Aerodrome Forecast
Issued by NWS Buffalo, NY

Home | Current Version | Previous Version | Text Only | Print | Product List | Glossary On
Versions: 1 2 3 4 5 6 7 8 9 10 11 12 13 14 15 16 17 18 19 20 21 22 23 24 25 26 27 28
000
FTUS41 KBUF 022338
TAFBUF
TAF
KBUF 022338Z 0300/0324 22009KT P6SM BKN140
     FM030300 20013KT P6SM SCT250 WS020/23040KT
     FM030600 21015KT P6SM SCT250 WS020/22045KT
     FM030800 22015KT P6SM VCSH BKN050
     FM031700 24014KT 6SM -SHRA VCTS OVC035CB
     FM032000 23013KT P6SM VCSH BKN050=

USA.gov is the U.S. government's official web portal to all federal, state and local government web resources and services.